createdAt,value
2018-11-26T00:00:21.208Z,27.7
2018-11-26T00:01:11.010Z,27.5
2018-11-26T00:02:02.470Z,28.1
2018-11-26T00:02:52.567Z,27.5
2018-11-26T00:03:42.867Z,27.3
2018-11-26T00:04:31.828Z,27.1
2018-11-26T00:05:22.440Z,27.1
2018-11-26T00:06:12.207Z,27.2
2018-11-26T00:07:02.590Z,27.5
2018-11-26T00:25:13.639Z,28.8
2018-11-26T00:26:04.252Z,28.8
2018-11-26T00:26:53.433Z,28.8
2018-11-26T00:27:44.342Z,28.7
2018-11-26T00:28:33.879Z,28.7
2018-11-26T00:29:24.166Z,28.7
2018-11-26T00:30:14.868Z,28.7
2018-11-26T00:31:05.112Z,28.6
2018-11-26T00:31:55.156Z,28.6
2018-11-26T00:32:45.230Z,28.6
2018-11-26T00:33:34.745Z,28.5
2018-11-26T00:34:25.086Z,28.5
2018-11-26T00:35:15.678Z,28.4
2018-11-26T00:36:04.368Z,28.4
2018-11-26T00:36:56.063Z,28.4
2018-11-26T00:37:44.730Z,28.3
2018-11-26T00:38:35.058Z,28.3
2018-11-26T00:39:23.240Z,28.3
2018-11-26T00:40:15.203Z,28.3
2018-11-26T00:41:04.750Z,28.2
2018-11-26T00:41:55.068Z,28.2
2018-11-26T00:42:44.855Z,27.9
2018-11-26T00:43:34.880Z,27.4
2018-11-26T00:44:24.729Z,27.8
2018-11-26T00:45:16.110Z,27.6
2018-11-26T00:46:05.347Z,27.3
2018-11-26T00:46:56.191Z,27.1
2018-11-26T00:47:44.997Z,27.1
2018-11-26T00:48:35.651Z,27.1
2018-11-26T00:49:25.100Z,27.3
2018-11-26T00:50:16.790Z,27.6
2018-11-26T00:51:06.020Z,27.9
2018-11-26T00:51:56.396Z,28.1
2018-11-26T00:52:44.763Z,28.3
2018-11-26T00:53:35.476Z,28.5
2018-11-26T00:54:25.167Z,28.7
2018-11-26T00:55:15.862Z,28.8
2018-11-26T00:56:06.129Z,29
2018-11-26T00:56:55.337Z,29.1
2018-11-26T00:57:46.764Z,29.3
2018-11-26T00:58:36.869Z,29.4
2018-11-26T00:59:25.345Z,29.5
2018-11-26T01:00:16.209Z,29.6
2018-11-26T01:01:06.564Z,29.7
2018-11-26T01:01:55.784Z,29.7
2018-11-26T01:02:47.368Z,29.6
2018-11-26T01:03:35.259Z,29.5
2018-11-26T01:04:25.884Z,29.3
2018-11-26T01:05:17.019Z,29.1
2018-11-26T01:06:06.820Z,28.9
2018-11-26T01:06:56.318Z,28.8
2018-11-26T01:07:46.584Z,28.7
2018-11-26T01:08:37.001Z,28.7
2018-11-26T01:09:27.306Z,28.7
2018-11-26T01:10:15.791Z,28.6
2018-11-26T01:11:07.393Z,28.6
2018-11-26T01:11:57.143Z,28.6
2018-11-26T01:12:46.416Z,28.6
2018-11-26T01:13:36.711Z,28.6
2018-11-26T01:14:26.813Z,28.6
2018-11-26T01:15:16.583Z,28.5
2018-11-26T01:16:08.023Z,28.5
2018-11-26T01:16:57.803Z,28.4
2018-11-26T01:17:47.289Z,28.4
2018-11-26T01:18:38.182Z,28.4
2018-11-26T01:19:28.511Z,28.3
2018-11-26T01:20:18.005Z,28.3
2018-11-26T01:21:08.672Z,28.3
2018-11-26T01:21:57.852Z,28.3
2018-11-26T01:22:47.394Z,28.2
2018-11-26T01:23:38.282Z,28.1
2018-11-26T01:24:28.332Z,28.1
2018-11-26T01:25:18.457Z,28
2018-11-26T01:26:08.470Z,27.4
2018-11-26T01:26:59.040Z,27.7
2018-11-26T01:27:48.068Z,27.7
2018-11-26T01:28:38.822Z,27.3
2018-11-26T01:29:28.107Z,27.1
2018-11-26T01:30:17.947Z,27
2018-11-26T01:31:07.997Z,27.1
2018-11-26T01:31:58.972Z,27.3
2018-11-26T01:32:48.960Z,27.6
2018-11-26T01:34:28.196Z,28.1
2018-11-26T01:35:19.055Z,28.3
2018-11-26T01:36:09.197Z,28.5
2018-11-26T01:36:57.846Z,28.6
2018-11-26T01:37:49.264Z,28.8
2018-11-26T01:38:39.394Z,28.9
2018-11-26T01:39:29.701Z,29.1
2018-11-26T01:40:20.031Z,29.2
2018-11-26T01:41:09.345Z,29.3
2018-11-26T01:41:58.846Z,29.4
2018-11-26T01:42:49.079Z,29.6
2018-11-26T01:43:40.231Z,29.6
2018-11-26T01:44:30.252Z,29.7
2018-11-26T01:45:19.771Z,29.6
2018-11-26T01:46:10.401Z,29.5
2018-11-26T01:46:59.973Z,29.3
2018-11-26T01:47:50.281Z,29.1
2018-11-26T01:48:40.016Z,28.9
2018-11-26T01:49:30.173Z,28.8
2018-11-26T01:50:19.918Z,28.8
2018-11-26T01:51:10.476Z,28.7
2018-11-26T01:52:00.541Z,28.7
2018-11-26T01:52:50.585Z,28.7
2018-11-26T01:53:39.271Z,28.6
2018-11-26T01:54:29.875Z,28.6
2018-11-26T01:55:20.221Z,28.6
2018-11-26T01:56:10.801Z,28.6
2018-11-26T01:57:01.773Z,28.6
2018-11-26T01:57:51.238Z,28.6
2018-11-26T01:58:41.304Z,28.5
2018-11-26T01:59:29.975Z,28.5
2018-11-26T02:00:20.590Z,28.4
2018-11-26T02:01:10.550Z,28.4
2018-11-26T02:02:00.442Z,28.4
2018-11-26T02:02:51.330Z,28.3
2018-11-26T02:03:41.638Z,28.3
2018-11-26T02:04:32.819Z,28.3
2018-11-26T02:05:20.454Z,28.2
2018-11-26T02:06:10.705Z,28.2
2018-11-26T02:07:02.732Z,28.1
2018-11-26T02:07:51.464Z,27.7
2018-11-26T02:08:39.815Z,27.4
2018-11-26T02:10:20.834Z,27.5
2018-11-26T02:11:11.617Z,27.2
2018-11-26T02:12:02.239Z,27.1
2018-11-26T02:12:50.725Z,26.9
2018-11-26T02:13:42.639Z,27.1
2018-11-26T02:14:32.367Z,27.4
2018-11-26T02:15:22.426Z,27.7
2018-11-26T02:16:11.193Z,27.9
2018-11-26T02:17:02.592Z,28.1
2018-11-26T02:17:52.424Z,28.4
2018-11-26T02:18:41.091Z,28.5
2018-11-26T02:19:32.487Z,28.7
2018-11-26T02:20:22.014Z,28.9
2018-11-26T02:21:12.071Z,28.9
2018-11-26T02:22:00.754Z,29.1
2018-11-26T02:22:52.732Z,29.3
2018-11-26T02:23:41.453Z,29.4
2018-11-26T02:24:32.581Z,29.4
2018-11-26T02:25:22.408Z,29.6
2018-11-26T02:26:12.693Z,29.6
2018-11-26T02:27:02.773Z,29.6
2018-11-26T02:27:53.318Z,29.5
2018-11-26T02:28:43.166Z,29.3
2018-11-26T02:29:33.826Z,29.1
2018-11-26T02:30:23.246Z,28.9
2018-11-26T02:31:12.573Z,28.8
2018-11-26T02:32:03.667Z,28.8
2018-11-26T02:32:52.963Z,28.7
2018-11-26T02:33:44.059Z,28.7
2018-11-26T02:34:32.178Z,28.7
2018-11-26T02:35:23.403Z,28.6
2018-11-26T02:36:13.659Z,28.6
2018-11-26T02:37:02.900Z,28.6
2018-11-26T02:37:53.847Z,28.6
2018-11-26T02:38:43.081Z,28.5
2018-11-26T02:39:33.925Z,28.5
2018-11-26T02:40:22.378Z,28.4
2018-11-26T02:41:12.996Z,28.4
2018-11-26T02:42:05.015Z,28.4
2018-11-26T02:42:52.942Z,28.3
2018-11-26T02:43:43.670Z,28.3
2018-11-26T02:44:33.417Z,28.3
2018-11-26T02:45:24.387Z,28.2
2018-11-26T02:46:14.064Z,28.2
2018-11-26T02:47:04.185Z,28.1
2018-11-26T02:47:54.232Z,28.1
2018-11-26T02:48:44.872Z,28.1
2018-11-26T02:49:33.508Z,27.4
2018-11-26T02:50:24.990Z,27.5
2018-11-26T02:51:15.819Z,27.9
2018-11-26T02:52:05.161Z,27.3
2018-11-26T02:52:53.479Z,27.1
2018-11-26T02:53:44.608Z,27
2018-11-26T02:54:34.189Z,27
2018-11-26T02:55:24.853Z,27.3
2018-11-26T02:56:15.619Z,27.5
2018-11-26T02:57:54.696Z,28.1
2018-11-26T02:58:45.961Z,28.3
2018-11-26T02:59:35.894Z,28.4
2018-11-26T03:00:24.666Z,28.6
2018-11-26T03:01:14.399Z,28.8
2018-11-26T03:02:05.211Z,28.9
2018-11-26T03:02:53.964Z,29.1
2018-11-26T03:03:45.393Z,29.2
2018-11-26T03:04:35.459Z,29.3
2018-11-26T03:05:24.161Z,29.4
2018-11-26T03:06:16.384Z,29.5
2018-11-26T03:07:05.888Z,29.6
2018-11-26T03:07:56.210Z,29.6
2018-11-26T03:08:45.054Z,29.6
2018-11-26T03:09:36.033Z,29.4
2018-11-26T03:10:26.403Z,29.2
2018-11-26T03:11:16.198Z,29
2018-11-26T03:12:05.916Z,28.8
2018-11-26T03:12:56.063Z,28.7
2018-11-26T03:13:46.586Z,28.7
2018-11-26T03:14:36.397Z,28.6
2018-11-26T03:15:26.447Z,28.6
2018-11-26T03:16:17.121Z,28.6
2018-11-26T03:17:06.553Z,28.6
2018-11-26T03:17:55.920Z,28.6
2018-11-26T03:18:45.870Z,28.6
2018-11-26T03:19:34.873Z,28.6
2018-11-26T03:20:26.538Z,28.5
2018-11-26T03:21:17.990Z,28.5
2018-11-26T03:22:06.766Z,28.4
2018-11-26T03:22:57.595Z,28.4
2018-11-26T03:23:45.480Z,28.4
2018-11-26T03:24:37.645Z,28.4
2018-11-26T03:25:26.355Z,28.3
2018-11-26T03:26:18.310Z,28.3
2018-11-26T03:27:07.553Z,28.2
2018-11-26T03:27:56.477Z,28.2
2018-11-26T03:28:46.832Z,28.2
2018-11-26T03:29:36.168Z,28.1
2018-11-26T03:31:16.731Z,27.4
2018-11-26T03:32:58.120Z,27.5
2018-11-26T03:33:47.742Z,27.2
2018-11-26T03:34:37.499Z,27
2018-11-26T03:35:27.111Z,27
2018-11-26T03:36:17.623Z,27.1
2018-11-26T03:37:08.327Z,27.4
2018-11-26T03:37:58.322Z,27.7
2018-11-26T03:38:46.696Z,27.9
2018-11-26T03:39:37.689Z,28.1
2018-11-26T03:40:28.062Z,28.4
2018-11-26T03:41:17.554Z,28.5
2018-11-26T03:42:08.625Z,28.7
2018-11-26T03:42:57.594Z,28.9
2018-11-26T03:43:49.553Z,29
2018-11-26T03:44:37.174Z,29.1
2018-11-26T03:45:28.911Z,29.3
2018-11-26T03:46:18.746Z,29.4
2018-11-26T03:47:08.242Z,29.5
2018-11-26T03:47:58.996Z,29.6
2018-11-26T03:48:49.353Z,29.6
2018-11-26T03:49:39.132Z,29.6
2018-11-26T03:50:28.709Z,29.6
2018-11-26T03:51:18.291Z,29.4
2018-11-26T03:52:08.753Z,29.2
2018-11-26T03:52:58.483Z,29
2018-11-26T03:53:49.750Z,28.9
2018-11-26T03:54:39.038Z,28.8
2018-11-26T03:55:29.020Z,28.8
2018-11-26T03:56:20.090Z,28.7
2018-11-26T03:57:09.705Z,28.7
2018-11-26T03:58:00.259Z,28.6
2018-11-26T03:58:49.552Z,28.7
2018-11-26T03:59:39.528Z,28.6
2018-11-26T04:00:28.255Z,28.6
2018-11-26T04:01:19.131Z,28.6
2018-11-26T04:02:09.508Z,28.6
2018-11-26T04:03:00.372Z,28.6
2018-11-26T04:03:49.873Z,28.5
2018-11-26T04:04:39.722Z,28.5
2018-11-26T04:05:29.489Z,28.4
2018-11-26T04:06:18.964Z,28.4
2018-11-26T04:07:09.774Z,28.4
2018-11-26T04:07:59.317Z,28.3
2018-11-26T04:08:49.759Z,28.3
2018-11-26T04:09:39.202Z,28.3
2018-11-26T04:10:28.967Z,28.2
2018-11-26T04:11:19.279Z,28.2
2018-11-26T04:12:09.577Z,27.6
2018-11-26T04:12:59.934Z,27.5
2018-11-26T04:13:49.430Z,28.1
2018-11-26T04:14:40.609Z,27.4
2018-11-26T04:15:30.929Z,27.1
2018-11-26T04:16:19.670Z,27
2018-11-26T04:17:09.409Z,27
2018-11-26T04:18:00.877Z,27.1
2018-11-26T04:18:49.879Z,27.4
2018-11-26T04:19:40.168Z,27.7
2018-11-26T04:20:30.777Z,28
2018-11-26T04:21:20.845Z,28.2
2018-11-26T04:22:10.981Z,28.4
2018-11-26T04:23:01.289Z,28.6
2018-11-26T04:23:50.149Z,28.8
2018-11-26T04:24:41.581Z,28.9
2018-11-26T04:25:32.291Z,29.1
2018-11-26T04:26:20.636Z,29.1
2018-11-26T04:27:12.083Z,29.3
2018-11-26T04:28:00.555Z,29.4
2018-11-26T04:28:52.438Z,29.5
2018-11-26T04:29:41.705Z,29.6
2018-11-26T04:30:32.123Z,29.6
2018-11-26T04:31:21.241Z,29.6
2018-11-26T04:32:10.988Z,29.6
2018-11-26T04:33:01.156Z,29.4
2018-11-26T04:33:51.988Z,29.2
2018-11-26T04:34:41.193Z,29
2018-11-26T04:35:32.105Z,28.9
2018-11-26T04:36:20.855Z,28.8
2018-11-26T04:54:24.772Z,28.1
2018-11-26T04:55:14.377Z,28.1
2018-11-26T04:56:04.847Z,28
2018-11-26T04:56:54.354Z,28
2018-11-26T04:57:52.199Z,27.9
2018-11-26T04:58:34.788Z,27.9
2018-11-26T05:00:15.840Z,27.8
2018-11-26T05:01:05.023Z,27.7
2018-11-26T05:01:55.336Z,27.7
2018-11-26T05:02:45.175Z,27.6
2018-11-26T05:03:34.042Z,27.6
2018-11-26T05:04:25.465Z,27.5
2018-11-26T05:05:14.911Z,27.4
2018-11-26T05:06:04.548Z,27.4
2018-11-26T05:06:54.892Z,27.1
2018-11-26T05:07:44.686Z,26.7
2018-11-26T05:08:36.058Z,26.9
2018-11-26T05:09:25.529Z,27.3
2018-11-26T05:10:15.968Z,27
2018-11-26T05:11:06.803Z,26.8
2018-11-26T05:11:55.468Z,26.6
2018-11-26T05:12:45.546Z,26.5
2018-11-26T05:13:35.278Z,26.7
2018-11-26T05:14:25.563Z,27
2018-11-26T05:15:15.158Z,27.3
2018-11-26T05:16:06.920Z,27.6
2018-11-26T05:16:56.083Z,27.8
2018-11-26T05:17:45.871Z,28
2018-11-26T05:18:35.401Z,28.2
2018-11-26T05:19:25.448Z,28.3
2018-11-26T05:20:16.345Z,28.5
2018-11-26T05:21:06.075Z,28.6
2018-11-26T05:21:57.194Z,28.8
2018-11-26T05:22:46.289Z,28.9
2018-11-26T05:23:36.292Z,29.1
2018-11-26T05:24:26.857Z,29.1
2018-11-26T05:25:16.502Z,29.2
2018-11-26T05:26:07.329Z,29.2
2018-11-26T05:26:57.565Z,29.1
2018-11-26T05:27:46.549Z,29
2018-11-26T05:28:36.667Z,28.8
2018-11-26T05:29:27.774Z,28.7
2018-11-26T05:30:16.255Z,28.6
2018-11-26T05:31:09.192Z,28.5
2018-11-26T05:31:57.342Z,28.4
2018-11-26T05:32:47.779Z,28.4
2018-11-26T05:33:36.689Z,28.3
2018-11-26T05:34:28.384Z,28.3
2018-11-26T05:35:17.061Z,28.3
2018-11-26T05:36:06.301Z,28.3
2018-11-26T05:36:56.024Z,28.3
2018-11-26T05:37:46.984Z,28.2
2018-11-26T05:38:37.596Z,28.1
2018-11-26T05:39:27.980Z,28.1
2018-11-26T05:40:17.455Z,28.1
2018-11-26T05:41:06.682Z,28
2018-11-26T05:41:58.574Z,27.9
2018-11-26T05:42:47.052Z,27.9
2018-11-26T05:45:18.460Z,27.8
2018-11-26T05:46:07.847Z,27.7
2018-11-26T05:46:57.613Z,27.7
2018-11-26T05:47:47.997Z,27.6
2018-11-26T05:48:37.979Z,27.6
2018-11-26T05:49:28.916Z,27.5
2018-11-26T05:50:17.551Z,27.5
2018-11-26T05:51:07.611Z,27.4
2018-11-26T05:51:59.342Z,27.4
2018-11-26T05:52:47.869Z,27.3
2018-11-26T05:53:37.919Z,27.3
2018-11-26T05:54:28.794Z,27.2
2018-11-26T05:55:19.551Z,27.2
2018-11-26T05:56:08.844Z,27.1
2018-11-26T05:56:58.043Z,26.9
2018-11-26T05:57:49.064Z,26.4
2018-11-26T05:58:39.598Z,26.8
2018-11-26T05:59:29.296Z,27
2018-11-26T06:00:18.835Z,26.6
2018-11-26T06:01:09.158Z,26.4
2018-11-26T06:01:59.753Z,26.4
2018-11-26T06:02:49.294Z,26.4
2018-11-26T06:03:39.621Z,26.6
2018-11-26T06:04:29.928Z,26.9
2018-11-26T06:05:19.695Z,27.2
2018-11-26T06:06:08.706Z,27.4
2018-11-26T06:06:59.275Z,27.7
2018-11-26T06:07:49.582Z,27.9
2018-11-26T06:08:38.826Z,28.1
2018-11-26T06:09:29.198Z,28.3
2018-11-26T06:10:19.600Z,28.4
2018-11-26T06:11:08.738Z,28.6
2018-11-26T06:11:59.925Z,28.7
2018-11-26T06:12:50.251Z,28.8
2018-11-26T06:13:39.485Z,28.9
2018-11-26T06:14:30.931Z,29
2018-11-26T06:15:20.209Z,29.1
2018-11-26T06:16:10.303Z,29
2018-11-26T06:17:02.390Z,28.9
2018-11-26T06:17:51.017Z,28.9
2018-11-26T06:18:41.500Z,28.8
2018-11-26T06:19:29.987Z,28.6
2018-11-26T06:20:20.774Z,28.4
2018-11-26T06:21:10.388Z,28.4
2018-11-26T06:22:01.130Z,28.3
2018-11-26T06:22:50.494Z,28.3
2018-11-26T06:23:40.779Z,28.3
2018-11-26T06:24:29.702Z,28.2
2018-11-26T06:25:22.362Z,28.2
2018-11-26T06:26:11.182Z,28.2
2018-11-26T06:27:01.509Z,28.1
2018-11-26T06:27:50.517Z,28.1
2018-11-26T06:28:41.639Z,28.1
2018-11-26T06:29:31.237Z,28
2018-11-26T06:30:21.199Z,27.9
2018-11-26T06:31:10.457Z,27.9
2018-11-26T06:32:00.782Z,27.9
2018-11-26T06:33:41.496Z,27.8
2018-11-26T06:34:30.449Z,27.8
2018-11-26T06:35:21.098Z,27.7
2018-11-26T06:36:11.891Z,27.6
2018-11-26T06:37:01.374Z,27.6
2018-11-26T06:37:51.816Z,27.5
2018-11-26T06:38:42.037Z,27.5
2018-11-26T06:39:31.288Z,27.4
2018-11-26T06:40:21.683Z,27.4
2018-11-26T06:41:11.977Z,27.3
2018-11-26T06:42:02.519Z,27.3
2018-11-26T06:42:52.679Z,27.3
2018-11-26T06:43:42.210Z,27.2
2018-11-26T06:44:32.503Z,27.1
2018-11-26T06:45:22.090Z,26.9
2018-11-26T06:46:12.355Z,26.5
2018-11-26T06:47:02.666Z,26.8
2018-11-26T06:47:53.280Z,26.9
2018-11-26T06:48:42.785Z,26.6
2018-11-26T06:49:32.547Z,26.4
2018-11-26T06:50:23.260Z,26.3
2018-11-26T06:51:12.398Z,26.3
2018-11-26T06:52:03.232Z,26.6
2018-11-26T06:52:53.060Z,26.9
2018-11-26T06:53:43.357Z,27.2
2018-11-26T06:54:32.336Z,27.4
2018-11-26T06:55:22.747Z,27.7
2018-11-26T06:56:13.267Z,27.9
2018-11-26T06:57:03.335Z,28.1
2018-11-26T06:57:52.305Z,28.3
2018-11-26T06:58:42.315Z,28.4
2018-11-26T06:59:32.772Z,28.6
2018-11-26T07:00:23.944Z,28.7
2018-11-26T07:01:13.615Z,28.8
2018-11-26T07:02:04.334Z,28.9
2018-11-26T07:02:53.512Z,29
2018-11-26T07:03:44.307Z,29.1
2018-11-26T07:04:33.344Z,29.1
2018-11-26T07:05:23.448Z,29
2018-11-26T07:06:13.992Z,28.9
2018-11-26T07:07:03.520Z,28.8
2018-11-26T07:07:53.285Z,28.6
2018-11-26T07:08:44.706Z,28.5
2018-11-26T07:09:33.938Z,28.4
2018-11-26T07:10:24.280Z,28.4
2018-11-26T07:11:14.838Z,28.3
2018-11-26T07:12:03.311Z,28.3
2018-11-26T07:12:54.497Z,28.3
2018-11-26T07:13:44.565Z,28.2
2018-11-26T07:14:34.561Z,28.2
2018-11-26T07:15:24.935Z,28.2
2018-11-26T07:16:13.003Z,28.1
2018-11-26T07:17:04.689Z,28.1
2018-11-26T07:17:54.384Z,28.1
2018-11-26T07:18:44.575Z,28.1
2018-11-26T07:19:34.347Z,28
2018-11-26T07:20:24.738Z,27.9
2018-11-26T07:21:15.044Z,27.9
2018-11-26T07:22:05.515Z,27.9
2018-11-26T07:23:44.932Z,27.8
2018-11-26T07:24:35.294Z,27.8
2018-11-26T07:25:25.402Z,27.7
2018-11-26T07:26:14.819Z,27.6
2018-11-26T07:27:05.456Z,27.6
2018-11-26T07:27:55.552Z,27.6
2018-11-26T07:28:45.229Z,27.5
2018-11-26T07:29:36.162Z,27.4
2018-11-26T07:30:26.234Z,27.4
2018-11-26T07:31:15.776Z,27.4
2018-11-26T07:32:06.136Z,27.3
2018-11-26T07:32:55.579Z,27.3
2018-11-26T07:33:44.851Z,27.2
2018-11-26T07:34:35.822Z,26.7
2018-11-26T07:35:25.489Z,26.6
2018-11-26T07:36:21.124Z,26.9
2018-11-26T07:37:06.117Z,26.7
2018-11-26T07:37:56.491Z,26.4
2018-11-26T07:38:46.076Z,26.3
2018-11-26T07:39:35.772Z,26.3
2018-11-26T07:40:26.358Z,26.4
2018-11-26T07:41:15.914Z,26.7
2018-11-26T07:42:05.618Z,27
2018-11-26T07:42:57.358Z,27.3
2018-11-26T07:43:46.363Z,27.6
2018-11-26T07:44:36.688Z,27.8
2018-11-26T07:45:25.604Z,27.9
2018-11-26T07:46:15.953Z,28.1
2018-11-26T07:47:07.930Z,28.3
2018-11-26T07:47:56.870Z,28.4
2018-11-26T07:48:45.280Z,28.6
2018-11-26T07:49:36.207Z,28.8
2018-11-26T07:50:26.055Z,28.9
2018-11-26T07:51:16.608Z,29
2018-11-26T07:52:06.408Z,29.1
2018-11-26T07:52:55.882Z,29.1
2018-11-26T07:53:46.262Z,29
2018-11-26T07:54:38.164Z,28.9
2018-11-26T07:55:26.114Z,28.7
2018-11-26T07:56:17.542Z,28.6
2018-11-26T07:57:07.890Z,28.4
2018-11-26T07:57:57.440Z,28.3
2018-11-26T07:58:46.889Z,28.3
2018-11-26T07:59:37.262Z,28.3
2018-11-26T08:00:26.492Z,28.2
2018-11-26T08:01:16.579Z,28.2
2018-11-26T08:02:06.706Z,28.2
2018-11-26T08:02:56.699Z,28.2
2018-11-26T08:03:46.664Z,28.1
2018-11-26T08:04:37.584Z,28.1
2018-11-26T08:05:26.864Z,28.1
2018-11-26T08:06:19.134Z,28
2018-11-26T08:07:08.047Z,27.9
2018-11-26T08:07:55.928Z,27.9
2018-11-26T08:08:47.556Z,27.9
2018-11-26T08:10:26.279Z,27.8
2018-11-26T08:11:18.080Z,27.7
2018-11-26T08:12:09.001Z,27.7
2018-11-26T08:12:57.368Z,27.6
2018-11-26T08:13:47.779Z,27.6
2018-11-26T08:14:37.489Z,27.5
2018-11-26T08:15:29.191Z,27.5
2018-11-26T08:16:18.403Z,27.4
2018-11-26T08:17:09.098Z,27.4
2018-11-26T08:17:58.619Z,27.3
2018-11-26T08:18:48.590Z,27.3
2018-11-26T08:19:39.229Z,27.3
2018-11-26T08:20:28.223Z,27.2
2018-11-26T08:21:18.283Z,27.1
2018-11-26T08:22:08.855Z,27.1
2018-11-26T08:22:57.873Z,26.6
2018-11-26T08:23:49.474Z,26.6
2018-11-26T08:24:37.595Z,26.9
2018-11-26T08:25:29.980Z,26.7
2018-11-26T08:26:18.313Z,26.4
2018-11-26T08:27:09.508Z,26.3
2018-11-26T08:27:59.225Z,26.3
2018-11-26T08:28:49.287Z,26.4
2018-11-26T08:29:39.070Z,26.7
2018-11-26T08:30:30.332Z,27
2018-11-26T08:31:19.815Z,27.3
2018-11-26T08:32:08.828Z,27.5
2018-11-26T08:32:59.113Z,27.8
2018-11-26T08:33:49.924Z,27.9
2018-11-26T08:34:38.851Z,28.1
2018-11-26T08:35:29.244Z,28.3
2018-11-26T08:36:19.319Z,28.4
2018-11-26T08:37:09.553Z,28.6
2018-11-26T08:37:59.165Z,28.8
2018-11-26T08:38:51.031Z,28.9
2018-11-26T08:39:40.646Z,29
2018-11-26T08:40:30.873Z,29.1
2018-11-26T08:41:19.714Z,29
2018-11-26T08:42:10.753Z,28.9
2018-11-26T08:43:01.043Z,28.9
2018-11-26T08:43:50.843Z,28.8
2018-11-26T08:44:40.944Z,28.6
2018-11-26T08:45:31.508Z,28.4
2018-11-26T08:46:20.318Z,28.4
2018-11-26T08:47:11.340Z,28.3
2018-11-26T08:48:01.001Z,28.3
2018-11-26T08:48:50.628Z,28.3
2018-11-26T08:49:41.507Z,28.2
2018-11-26T08:50:30.784Z,28.2
2018-11-26T08:51:20.865Z,28.2
2018-11-26T08:52:10.063Z,28.1
2018-11-26T09:08:53.608Z,27.2
2018-11-26T09:09:42.317Z,27.1
2018-11-26T09:10:33.008Z,27
2018-11-26T09:11:22.869Z,26.4
2018-11-26T09:12:14.171Z,26.8
2018-11-26T09:13:04.228Z,26.9
2018-11-26T09:13:52.941Z,26.5
2018-11-26T09:14:43.074Z,26.3
2018-11-26T09:15:32.788Z,26.3
2018-11-26T09:16:24.156Z,26.3
2018-11-26T09:17:12.602Z,26.5
2018-11-26T09:18:02.875Z,26.8
2018-11-26T09:18:53.799Z,27.1
2018-11-26T09:19:42.456Z,27.4
2018-11-26T09:20:33.979Z,27.6
2018-11-26T09:22:13.775Z,28
2018-11-26T09:23:04.900Z,28.2
2018-11-26T09:23:53.311Z,28.3
2018-11-26T09:24:43.710Z,28.5
2018-11-26T09:25:33.138Z,28.6
2018-11-26T09:26:23.745Z,28.8
2018-11-26T09:27:18.423Z,28.9
2018-11-26T09:28:02.263Z,29
2018-11-26T09:28:53.710Z,29
2018-11-26T09:29:44.565Z,28.9
2018-11-26T09:30:33.952Z,28.9
2018-11-26T09:31:24.134Z,28.8
2018-11-26T09:32:14.156Z,28.6
2018-11-26T09:33:04.825Z,28.5
2018-11-26T09:33:55.222Z,28.4
2018-11-26T09:34:43.650Z,28.4
2018-11-26T09:35:34.435Z,28.3
2018-11-26T09:36:25.029Z,28.3
2018-11-26T09:37:15.070Z,28.3
2018-11-26T09:38:04.921Z,28.3
2018-11-26T09:38:54.636Z,28.2
2018-11-26T09:39:44.389Z,28.2
2018-11-26T09:40:34.482Z,28.1
2018-11-26T09:41:24.082Z,28.1
2018-11-26T09:42:16.264Z,28.1
2018-11-26T09:43:05.437Z,28
2018-11-26T09:43:54.814Z,28
2018-11-26T09:44:44.974Z,27.9
2018-11-26T09:45:43.149Z,27.9
2018-11-26T09:46:26.279Z,27.9
2018-11-26T09:48:04.810Z,27.8
2018-11-26T09:48:55.409Z,27.8
2018-11-26T09:49:48.066Z,27.7
2018-11-26T09:50:35.191Z,27.6
2018-11-26T09:51:24.961Z,27.6
2018-11-26T09:52:14.786Z,27.6
2018-11-26T09:53:05.712Z,27.4
2018-11-26T09:53:56.298Z,27.4
2018-11-26T09:54:46.086Z,27.4
2018-11-26T09:55:35.511Z,27.3
2018-11-26T09:56:26.191Z,27.3
2018-11-26T09:57:16.263Z,27.3
2018-11-26T09:58:06.358Z,27.2
2018-11-26T09:58:55.565Z,27
2018-11-26T09:59:46.973Z,26.4
2018-11-26T10:00:35.883Z,26.9
2018-11-26T10:01:25.662Z,26.9
2018-11-26T10:02:17.104Z,26.5
2018-11-26T10:03:06.873Z,26.3
2018-11-26T10:03:55.841Z,26.3
2018-11-26T10:04:47.164Z,26.3
2018-11-26T10:05:35.972Z,26.6
2018-11-26T10:06:26.988Z,26.9
2018-11-26T10:07:15.268Z,27.1
2018-11-26T10:08:06.402Z,27.4
2018-11-26T10:08:57.050Z,27.7
2018-11-26T10:09:47.073Z,27.9
2018-11-26T10:10:35.508Z,28.1
2018-11-26T10:11:26.607Z,28.3
2018-11-26T10:12:16.194Z,28.4
2018-11-26T10:13:06.267Z,28.6
2018-11-26T10:13:56.442Z,28.7
2018-11-26T10:14:46.887Z,28.8
2018-11-26T10:15:36.457Z,28.9
2018-11-26T10:16:26.499Z,29
2018-11-26T10:17:17.319Z,29
2018-11-26T10:18:07.644Z,29
2018-11-26T10:18:57.787Z,28.9
2018-11-26T10:19:47.477Z,28.8
2018-11-26T10:20:38.084Z,28.6
2018-11-26T10:21:27.311Z,28.4
2018-11-26T10:22:17.618Z,28.4
2018-11-26T10:23:06.629Z,28.3
2018-11-26T10:23:58.926Z,28.3
2018-11-26T10:24:48.439Z,28.3
2018-11-26T10:25:38.207Z,28.2
2018-11-26T10:26:28.515Z,28.2
2018-11-26T10:27:18.295Z,28.2
2018-11-26T10:28:07.844Z,28.2
2018-11-26T10:28:58.699Z,28.1
2018-11-26T10:29:48.746Z,28.1
2018-11-26T10:30:37.933Z,28.1
2018-11-26T10:31:28.599Z,28
2018-11-26T10:32:19.401Z,28
2018-11-26T10:33:15.870Z,27.9
2018-11-26T10:33:58.606Z,27.9
2018-11-26T10:36:28.388Z,27.8
2018-11-26T10:37:18.791Z,27.7
2018-11-26T10:38:09.851Z,27.7
2018-11-26T10:38:58.523Z,27.6
2018-11-26T10:39:50.265Z,27.6
2018-11-26T10:40:39.284Z,27.5
2018-11-26T10:41:29.119Z,27.5
2018-11-26T10:42:19.925Z,27.4
2018-11-26T10:43:17.000Z,27.4
2018-11-26T10:43:59.735Z,27.3
2018-11-26T10:44:49.238Z,27.3
2018-11-26T10:45:39.302Z,27.2
2018-11-26T10:46:30.729Z,27.2
2018-11-26T10:47:20.519Z,26.9
2018-11-26T10:48:08.255Z,26.4
2018-11-26T10:49:00.162Z,26.8
2018-11-26T10:49:50.735Z,26.8
2018-11-26T10:50:39.377Z,26.4
2018-11-26T10:51:30.160Z,26.3
2018-11-26T10:52:19.502Z,26.2
2018-11-26T10:53:10.082Z,26.2
2018-11-26T10:54:00.435Z,26.5
2018-11-26T10:54:50.790Z,26.8
2018-11-26T10:55:40.973Z,27.1
2018-11-26T10:56:28.907Z,27.4
2018-11-26T10:57:19.867Z,27.6
2018-11-26T10:58:10.487Z,27.9
2018-11-26T10:59:00.020Z,28.1
2018-11-26T10:59:51.325Z,28.3
2018-11-26T11:00:41.584Z,28.4
2018-11-26T11:01:30.929Z,28.6
2018-11-26T11:02:20.199Z,28.7
2018-11-26T11:03:11.164Z,28.8
2018-11-26T11:04:01.519Z,28.9
2018-11-26T11:04:57.148Z,28.9
2018-11-26T11:05:40.989Z,28.9
2018-11-26T11:06:29.969Z,28.8
2018-11-26T11:07:21.646Z,28.7
2018-11-26T11:08:12.256Z,28.6
2018-11-26T11:09:01.513Z,28.4
2018-11-26T11:09:51.006Z,28.3
2018-11-26T11:10:41.299Z,28.3
2018-11-26T11:11:33.143Z,28.3
2018-11-26T11:12:21.436Z,28.2
2018-11-26T11:13:11.254Z,28.2
2018-11-26T11:14:01.321Z,28.1
2018-11-26T11:14:51.626Z,28.1
2018-11-26T11:15:41.975Z,28.1
2018-11-26T11:16:32.313Z,28.1
2018-11-26T11:17:21.216Z,28
2018-11-26T11:18:11.328Z,27.9
2018-11-26T11:19:02.776Z,27.9
2018-11-26T11:19:51.128Z,27.9
2018-11-26T11:21:31.831Z,27.8
2018-11-26T11:22:21.412Z,27.8
2018-11-26T11:23:12.778Z,27.7
2018-11-26T11:24:03.105Z,27.6
2018-11-26T11:24:51.640Z,27.6
2018-11-26T11:25:41.352Z,27.6
2018-11-26T11:26:33.238Z,27.5
2018-11-26T11:27:22.244Z,27.4
2018-11-26T11:28:12.902Z,27.4
2018-11-26T11:29:02.924Z,27.4
2018-11-26T11:29:52.702Z,27.3
2018-11-26T11:30:43.311Z,27.3
2018-11-26T11:31:33.126Z,27.3
2018-11-26T11:32:21.809Z,27.2
2018-11-26T11:34:03.136Z,27.1
2018-11-26T11:34:52.572Z,27
2018-11-26T11:35:43.846Z,26.5
2018-11-26T11:36:34.154Z,26.6
2018-11-26T11:37:24.191Z,26.9
2018-11-26T11:38:13.829Z,26.4
2018-11-26T11:39:03.594Z,26.3
2018-11-26T11:39:54.784Z,26.1
2018-11-26T11:40:43.179Z,26.1
2018-11-26T11:41:40.377Z,26.4
2018-11-26T11:42:24.341Z,26.8
2018-11-26T11:43:14.193Z,27
2018-11-26T11:44:03.878Z,27.3
2018-11-26T11:44:55.058Z,27.6
2018-11-26T11:45:44.840Z,27.8
2018-11-26T11:46:35.250Z,28
2018-11-26T11:47:25.497Z,28.2
2018-11-26T11:48:15.293Z,28.3
2018-11-26T11:49:04.518Z,28.5
2018-11-26T11:49:54.553Z,28.6
2018-11-26T11:50:44.722Z,28.8
2018-11-26T11:51:34.650Z,28.9
2018-11-26T11:52:25.292Z,28.9
2018-11-26T11:53:15.345Z,28.8
2018-11-26T11:54:04.880Z,28.8
2018-11-26T11:54:54.940Z,28.6
2018-11-26T11:55:45.042Z,28.5
2018-11-26T11:56:35.902Z,28.4
2018-11-26T11:57:25.650Z,28.3
2018-11-26T11:58:17.102Z,28.3
2018-11-26T11:59:05.209Z,28.3
2018-11-26T11:59:56.387Z,28.2
2018-11-26T12:00:45.650Z,28.1
2018-11-26T12:01:36.457Z,28.1
2018-11-26T12:02:26.934Z,28.1
2018-11-26T12:03:16.147Z,28.1
2018-11-26T12:04:05.566Z,28
2018-11-26T12:04:56.257Z,28
2018-11-26T12:05:45.721Z,28
2018-11-26T12:06:36.906Z,27.9
2018-11-26T12:07:26.093Z,27.9
2018-11-26T12:09:55.616Z,27.7
2018-11-26T12:10:46.603Z,27.6
2018-11-26T12:11:36.105Z,27.6
2018-11-26T12:12:26.291Z,27.6
2018-11-26T12:13:17.047Z,27.5
2018-11-26T12:14:06.078Z,27.5
2018-11-26T12:14:55.793Z,27.4
2018-11-26T12:15:46.446Z,27.4